Haslett, Michigan
Current Conditions -  °F | °C
As of 2:53 AM on Monday 22 Dec 2014 (Local Time) from KLAN Reporting Station
Haze Haze  
Wind Chill: 19°   Ceiling: Unl
Heat Index: 28°   Visibility: 5mi
Dew Point: 23°   Wind: 9mph
Humidity: 81%   Direction: 130°SE
Pressure: 30.1"   Gusts: NA
Location:  42.75°N, 84.41°W
Report Text: KLAN 220753Z 13008KT 5SM HZ CLR M02/M05 A3010 RMK AO2 SLP204 T10221050
Loading
Personal Weather Stations






























Interactive Weather Map New forecast layout! Learn more

10-Day Weather Forecast

Advertisements
Track Severe Weather on mobile